Horton, Kentucky
Current Conditions -  °F | °C
As of 8:55 AM on Monday 24 Nov 2014 (Local Time) from K2I0 Reporting Station
Drizzle Drizzle  
Wind Chill:   Ceiling: 2100
Heat Index:   Visibility: 7mi
Dew Point:   Wind: 24mph
Humidity: 80%   Direction: 290°WNW
Pressure: 29.66"   Gusts: 35mph
Location:  37.3559°N, 86.8747°W
Report Text: K2I0 241455Z AUTO 29021G30KT 7SM DZ OVC021 09/06 A2966 RMK AO2 T00920060
Loading
Personal Weather Stations






























Interactive Weather Map New forecast layout! Learn more

10-Day Weather Forecast

Advertisements
Track Severe Weather on mobile